sensor_id;sensor_type;location;lat;lon;timestamp;pressure;altitude;pressure_sealevel;temperature;humidity
51237;BME280;37312;47.550;18.818;2022-08-07T00:01:59;99335.56;;;18.85;90.57
51237;BME280;37312;47.550;18.818;2022-08-07T00:04:25;99338.56;;;18.83;90.41
51237;BME280;37312;47.550;18.818;2022-08-07T00:06:51;99333.13;;;18.83;90.52
51237;BME280;37312;47.550;18.818;2022-08-07T00:09:19;99328.50;;;18.84;90.40
51237;BME280;37312;47.550;18.818;2022-08-07T00:11:44;99323.59;;;18.81;90.45
51237;BME280;37312;47.550;18.818;2022-08-07T00:14:10;99333.69;;;18.80;90.50
51237;BME280;37312;47.550;18.818;2022-08-07T00:16:36;99327.44;;;18.80;90.74
51237;BME280;37312;47.550;18.818;2022-08-07T00:19:02;99321.69;;;18.76;90.91
51237;BME280;37312;47.550;18.818;2022-08-07T00:21:28;99329.34;;;18.79;90.74
51237;BME280;37312;47.550;18.818;2022-08-07T00:23:55;99325.78;;;18.79;90.90
51237;BME280;37312;47.550;18.818;2022-08-07T00:26:20;99324.16;;;18.78;90.87
51237;BME280;37312;47.550;18.818;2022-08-07T00:28:46;99322.50;;;18.76;91.03
51237;BME280;37312;47.550;18.818;2022-08-07T00:31:12;99316.78;;;18.78;90.76
51237;BME280;37312;47.550;18.818;2022-08-07T00:33:39;99322.50;;;18.76;91.28
51237;BME280;37312;47.550;18.818;2022-08-07T00:36:06;99318.41;;;18.74;91.30
51237;BME280;37312;47.550;18.818;2022-08-07T00:38:33;99324.69;;;18.80;90.99
51237;BME280;37312;47.550;18.818;2022-08-07T00:41:02;99324.16;;;18.78;91.10
51237;BME280;37312;47.550;18.818;2022-08-07T00:43:29;99324.41;;;18.81;90.90
51237;BME280;37312;47.550;18.818;2022-08-07T00:45:55;99318.13;;;18.75;91.10
51237;BME280;37312;47.550;18.818;2022-08-07T00:48:21;99313.25;;;18.72;91.36
51237;BME280;37312;47.550;18.818;2022-08-07T00:50:47;99324.19;;;18.67;91.76
51237;BME280;37312;47.550;18.818;2022-08-07T00:53:13;99322.28;;;18.63;92.22
51237;BME280;37312;47.550;18.818;2022-08-07T00:55:39;99324.22;;;18.62;92.39
51237;BME280;37312;47.550;18.818;2022-08-07T00:58:05;99323.37;;;18.67;92.03
51237;BME280;37312;47.550;18.818;2022-08-07T01:00:31;99317.38;;;18.65;92.15
51237;BME280;37312;47.550;18.818;2022-08-07T01:02:57;99313.84;;;18.64;92.32
51237;BME280;37312;47.550;18.818;2022-08-07T01:05:24;99305.63;;;18.69;92.09
51237;BME280;37312;47.550;18.818;2022-08-07T01:07:51;99305.69;;;18.59;92.58
51237;BME280;37312;47.550;18.818;2022-08-07T01:10:17;99305.38;;;18.66;92.33
51237;BME280;37312;47.550;18.818;2022-08-07T01:12:44;99309.72;;;18.67;92.20
51237;BME280;37312;47.550;18.818;2022-08-07T01:15:10;99307.81;;;18.67;92.45
51237;BME280;37312;47.550;18.818;2022-08-07T01:17:36;99314.66;;;18.65;92.47
51237;BME280;37312;47.550;18.818;2022-08-07T01:20:08;99312.19;;;18.68;92.47
51237;BME280;37312;47.550;18.818;2022-08-07T01:22:39;99308.06;;;18.71;92.08
51237;BME280;37312;47.550;18.818;2022-08-07T01:25:07;99305.09;;;18.67;92.04
51237;BME280;37312;47.550;18.818;2022-08-07T01:27:34;99305.66;;;18.64;92.40
51237;BME280;37312;47.550;18.818;2022-08-07T01:30:00;99316.59;;;18.59;92.77
51237;BME280;37312;47.550;18.818;2022-08-07T01:32:26;99319.03;;;18.61;92.46
51237;BME280;37312;47.550;18.818;2022-08-07T01:34:52;99315.00;;;18.53;93.12
51237;BME280;37312;47.550;18.818;2022-08-07T01:37:18;99308.44;;;18.54;93.22
51237;BME280;37312;47.550;18.818;2022-08-07T01:39:45;99319.06;;;18.55;93.27
51237;BME280;37312;47.550;18.818;2022-08-07T01:42:12;99305.69;;;18.54;93.46
51237;BME280;37312;47.550;18.818;2022-08-07T01:44:38;99309.50;;;18.58;92.94
51237;BME280;37312;47.550;18.818;2022-08-07T01:47:06;99307.87;;;18.57;93.09
51237;BME280;37312;47.550;18.818;2022-08-07T01:49:32;99308.97;;;18.56;93.16
51237;BME280;37312;47.550;18.818;2022-08-07T01:52:00;99312.50;;;18.62;93.11
51237;BME280;37312;47.550;18.818;2022-08-07T01:54:28;99308.97;;;18.56;93.17
51237;BME280;37312;47.550;18.818;2022-08-07T01:57:02;99311.41;;;18.58;93.15
51237;BME280;37312;47.550;18.818;2022-08-07T01:59:35;99310.03;;;18.60;93.10
51237;BME280;37312;47.550;18.818;2022-08-07T02:02:18;99298.31;;;18.60;92.85
51237;BME280;37312;47.550;18.818;2022-08-07T02:04:52;99304.62;;;18.55;93.18
51237;BME280;37312;47.550;18.818;2022-08-07T02:07:20;99311.47;;;18.52;93.76
51237;BME280;37312;47.550;18.818;2022-08-07T02:09:50;99304.94;;;18.48;93.72
51237;BME280;37312;47.550;18.818;2022-08-07T02:12:17;99317.47;;;18.49;93.88
51237;BME280;37312;47.550;18.818;2022-08-07T02:14:47;99312.56;;;18.46;94.14
51237;BME280;37312;47.550;18.818;2022-08-07T02:17:14;99325.09;;;18.52;93.90
51237;BME280;37312;47.550;18.818;2022-08-07T02:19:42;99320.72;;;18.51;93.57
51237;BME280;37312;47.550;18.818;2022-08-07T02:22:11;99327.53;;;18.54;93.45
51237;BME280;37312;47.550;18.818;2022-08-07T02:24:43;99325.63;;;18.49;93.86
51237;BME280;37312;47.550;18.818;2022-08-07T02:27:11;99321.56;;;18.52;93.73
51237;BME280;37312;47.550;18.818;2022-08-07T02:29:40;99325.38;;;18.51;93.83
51237;BME280;37312;47.550;18.818;2022-08-07T02:32:07;99325.94;;;18.48;93.64
51237;BME280;37312;47.550;18.818;2022-08-07T02:34:34;99324.88;;;18.44;93.90
51237;BME280;37312;47.550;18.818;2022-08-07T02:37:02;99331.94;;;18.45;93.98
51237;BME280;37312;47.550;18.818;2022-08-07T02:39:31;99332.19;;;18.48;93.75
51237;BME280;37312;47.550;18.818;2022-08-07T02:41:59;99333.81;;;18.49;93.79
51237;BME280;37312;47.550;18.818;2022-08-07T02:44:26;99331.66;;;18.46;93.94
51237;BME280;37312;47.550;18.818;2022-08-07T02:46:55;99329.47;;;18.48;93.45
51237;BME280;37312;47.550;18.818;2022-08-07T02:49:23;99328.16;;;18.41;94.17
51237;BME280;37312;47.550;18.818;2022-08-07T02:51:51;99333.34;;;18.37;94.47
51237;BME280;37312;47.550;18.818;2022-08-07T02:54:20;99327.31;;;18.40;93.96
51237;BME280;37312;47.550;18.818;2022-08-07T02:56:49;99326.28;;;18.31;94.62
51237;BME280;37312;47.550;18.818;2022-08-07T02:59:18;99320.81;;;18.31;94.73
51237;BME280;37312;47.550;18.818;2022-08-07T03:01:45;99325.16;;;18.37;94.26
51237;BME280;37312;47.550;18.818;2022-08-07T03:04:13;99327.63;;;18.39;93.97
51237;BME280;37312;47.550;18.818;2022-08-07T03:06:41;99317.81;;;18.32;94.33
51237;BME280;37312;47.550;18.818;2022-08-07T03:09:08;99327.34;;;18.35;93.98
51237;BME280;37312;47.550;18.818;2022-08-07T03:11:35;99332.53;;;18.31;94.28
51237;BME280;37312;47.550;18.818;2022-08-07T03:14:03;99324.09;;;18.33;93.87
51237;BME280;37312;47.550;18.818;2022-08-07T03:16:30;99328.44;;;18.39;93.59
51237;BME280;37312;47.550;18.818;2022-08-07T03:18:58;99330.03;;;18.40;93.52
51237;BME280;37312;47.550;18.818;2022-08-07T03:21:25;99329.81;;;18.37;93.78
51237;BME280;37312;47.550;18.818;2022-08-07T03:23:56;99323.31;;;18.27;93.72
51237;BME280;37312;47.550;18.818;2022-08-07T03:26:26;99325.72;;;18.29;94.09
51237;BME280;37312;47.550;18.818;2022-08-07T03:28:56;99326.28;;;18.31;94.00
51237;BME280;37312;47.550;18.818;2022-08-07T03:31:25;99322.19;;;18.28;96.50
51237;BME280;37312;47.550;18.818;2022-08-07T03:34:01;99317.25;;;18.36;97.36
51237;BME280;37312;47.550;18.818;2022-08-07T03:36:28;99325.47;;;18.30;97.45
51237;BME280;37312;47.550;18.818;2022-08-07T03:38:57;99324.94;;;18.23;98.08
51237;BME280;37312;47.550;18.818;2022-08-07T03:41:25;99334.22;;;18.22;97.73
51237;BME280;37312;47.550;18.818;2022-08-07T03:43:51;99329.59;;;18.18;97.37
51237;BME280;37312;47.550;18.818;2022-08-07T03:46:19;99332.06;;;18.14;97.61
51237;BME280;37312;47.550;18.818;2022-08-07T03:48:45;99334.28;;;18.02;98.27
51237;BME280;37312;47.550;18.818;2022-08-07T03:51:12;99340.84;;;18.01;98.61
51237;BME280;37312;47.550;18.818;2022-08-07T03:53:38;99343.03;;;17.99;98.96
51237;BME280;37312;47.550;18.818;2022-08-07T03:56:04;99345.75;;;17.99;98.89
51237;BME280;37312;47.550;18.818;2022-08-07T03:58:30;99345.19;;;17.97;98.83
51237;BME280;37312;47.550;18.818;2022-08-07T04:00:58;99357.75;;;17.92;99.18
51237;BME280;37312;47.550;18.818;2022-08-07T04:03:24;99360.47;;;17.87;99.77
51237;BME280;37312;47.550;18.818;2022-08-07T04:05:50;99357.75;;;17.87;99.90
51237;BME280;37312;47.550;18.818;2022-08-07T04:08:16;99362.66;;;17.90;100.00
51237;BME280;37312;47.550;18.818;2022-08-07T04:10:43;99352.56;;;17.96;99.70
51237;BME280;37312;47.550;18.818;2022-08-07T04:13:11;99358.81;;;17.97;99.66
51237;BME280;37312;47.550;18.818;2022-08-07T04:15:37;99359.63;;;17.97;99.64
51237;BME280;37312;47.550;18.818;2022-08-07T04:18:03;99369.47;;;17.98;100.00
51237;BME280;37312;47.550;18.818;2022-08-07T04:20:30;99371.88;;;18.00;99.35
51237;BME280;37312;47.550;18.818;2022-08-07T04:22:57;99376.50;;;18.04;98.89
51237;BME280;37312;47.550;18.818;2022-08-07T04:25:24;99384.97;;;18.08;98.86
51237;BME280;37312;47.550;18.818;2022-08-07T04:27:51;99382.50;;;18.11;98.98
51237;BME280;37312;47.550;18.818;2022-08-07T04:30:17;99387.41;;;18.09;98.73
51237;BME280;37312;47.550;18.818;2022-08-07T04:32:43;99381.69;;;18.16;98.63
51237;BME280;37312;47.550;18.818;2022-08-07T04:35:10;99387.12;;;18.21;98.14
51237;BME280;37312;47.550;18.818;2022-08-07T04:37:37;99388.72;;;18.22;97.89
51237;BME280;37312;47.550;18.818;2022-08-07T04:40:04;99390.34;;;18.28;97.07
51237;BME280;37312;47.550;18.818;2022-08-07T04:42:30;99388.16;;;18.30;97.16
51237;BME280;37312;47.550;18.818;2022-08-07T04:45:00;99383.53;;;18.31;96.92
51237;BME280;37312;47.550;18.818;2022-08-07T04:50:32;99388.72;;;18.32;96.74
51237;BME280;37312;47.550;18.818;2022-08-07T04:53:06;99378.88;;;18.31;96.71
51237;BME280;37312;47.550;18.818;2022-08-07T04:58:33;99383.22;;;18.48;95.22
51237;BME280;37312;47.550;18.818;2022-08-07T05:01:20;99382.91;;;18.49;95.01
51237;BME280;37312;47.550;18.818;2022-08-07T05:03:52;99377.69;;;18.58;94.27
51237;BME280;37312;47.550;18.818;2022-08-07T05:06:31;99370.88;;;18.61;94.62
51237;BME280;37312;47.550;18.818;2022-08-07T05:09:08;99372.75;;;18.70;94.90
51237;BME280;37312;47.550;18.818;2022-08-07T05:11:39;99374.09;;;18.73;95.38
51237;BME280;37312;47.550;18.818;2022-08-07T05:14:25;99373.72;;;18.95;93.88
51237;BME280;37312;47.550;18.818;2022-08-07T05:16:56;99384.84;;;19.04;92.12
51237;BME280;37312;47.550;18.818;2022-08-07T05:19:27;99375.78;;;19.13;91.97
51237;BME280;37312;47.550;18.818;2022-08-07T05:21:57;99379.81;;;19.21;91.04
51237;BME280;37312;47.550;18.818;2022-08-07T05:24:25;99373.78;;;19.24;91.29
51237;BME280;37312;47.550;18.818;2022-08-07T05:26:54;99375.72;;;19.24;90.87
51237;BME280;37312;47.550;18.818;2022-08-07T05:29:23;99373.28;;;19.22;90.73
51237;BME280;37312;47.550;18.818;2022-08-07T05:31:50;99386.63;;;19.24;90.09
51237;BME280;37312;47.550;18.818;2022-08-07T05:34:18;99391.00;;;19.25;89.48
51237;BME280;37312;47.550;18.818;2022-08-07T05:36:52;99387.16;;;19.26;89.48
51237;BME280;37312;47.550;18.818;2022-08-07T05:39:20;99398.09;;;19.26;89.32
51237;BME280;37312;47.550;18.818;2022-08-07T05:41:47;99399.72;;;19.27;89.10
51237;BME280;37312;47.550;18.818;2022-08-07T05:44:17;99400.59;;;19.22;88.56
51237;BME280;37312;47.550;18.818;2022-08-07T05:46:46;99397.81;;;19.27;89.27
51237;BME280;37312;47.550;18.818;2022-08-07T05:49:13;99413.09;;;19.28;89.66
51237;BME280;37312;47.550;18.818;2022-08-07T05:51:43;99411.69;;;19.31;89.04
51237;BME280;37312;47.550;18.818;2022-08-07T05:54:10;99410.62;;;19.32;89.28
51237;BME280;37312;47.550;18.818;2022-08-07T05:56:39;99402.16;;;19.33;88.42
51237;BME280;37312;47.550;18.818;2022-08-07T05:59:12;99410.03;;;19.35;88.75
51237;BME280;37312;47.550;18.818;2022-08-07T06:01:40;99408.31;;;19.44;87.96
51237;BME280;37312;47.550;18.818;2022-08-07T06:04:07;99402.31;;;19.42;87.72
51237;BME280;37312;47.550;18.818;2022-08-07T06:06:35;99403.12;;;19.48;87.39
51237;BME280;37312;47.550;18.818;2022-08-07T06:09:02;99411.53;;;19.56;nan
51237;BME280;37312;47.550;18.818;2022-08-07T06:11:28;99407.63;;;19.63;86.55
51237;BME280;37312;47.550;18.818;2022-08-07T06:13:54;99418.00;;;19.71;86.58
51237;BME280;37312;47.550;18.818;2022-08-07T06:16:22;99421.00;;;19.69;86.68
51237;BME280;37312;47.550;18.818;2022-08-07T06:18:52;99423.44;;;19.71;86.27
51237;BME280;37312;47.550;18.818;2022-08-07T06:21:19;99419.84;;;19.75;86.64
51237;BME280;37312;47.550;18.818;2022-08-07T06:23:45;99420.66;;;19.76;85.82
51237;BME280;37312;47.550;18.818;2022-08-07T06:26:12;99425.53;;;19.84;86.37
51237;BME280;37312;47.550;18.818;2022-08-07T06:28:53;99429.25;;;19.93;84.28
51237;BME280;37312;47.550;18.818;2022-08-07T06:31:20;99431.66;;;20.00;83.41
51237;BME280;37312;47.550;18.818;2022-08-07T06:33:46;99428.13;;;19.99;85.13
51237;BME280;37312;47.550;18.818;2022-08-07T06:36:12;99433.78;;;20.08;83.55
51237;BME280;37312;47.550;18.818;2022-08-07T06:38:41;99443.88;;;20.08;83.78
51237;BME280;37312;47.550;18.818;2022-08-07T06:41:27;99448.69;;;20.21;83.79
51237;BME280;37312;47.550;18.818;2022-08-07T06:43:55;99447.06;;;20.20;83.25
51237;BME280;37312;47.550;18.818;2022-08-07T06:46:22;99450.19;;;20.37;82.83
51237;BME280;37312;47.550;18.818;2022-08-07T06:48:48;99452.53;;;20.44;81.58
51237;BME280;37312;47.550;18.818;2022-08-07T06:51:17;99455.28;;;20.44;80.59
51237;BME280;37312;47.550;18.818;2022-08-07T06:53:44;99455.19;;;20.54;80.92
51237;BME280;37312;47.550;18.818;2022-08-07T06:56:12;99452.16;;;20.80;79.72
51237;BME280;37312;47.550;18.818;2022-08-07T06:58:39;99450.44;;;21.08;77.62
51237;BME280;37312;47.550;18.818;2022-08-07T07:01:08;99451.09;;;21.38;77.11
51237;BME280;37312;47.550;18.818;2022-08-07T07:03:37;99448.69;;;21.88;75.53
51237;BME280;37312;47.550;18.818;2022-08-07T07:06:05;99452.69;;;21.96;74.25
51237;BME280;37312;47.550;18.818;2022-08-07T07:08:31;99444.41;;;21.82;73.39
51237;BME280;37312;47.550;18.818;2022-08-07T07:10:57;99456.44;;;21.67;74.21
51237;BME280;37312;47.550;18.818;2022-08-07T07:13:39;99456.66;;;21.71;74.31
51237;BME280;37312;47.550;18.818;2022-08-07T07:16:09;99451.19;;;22.03;73.35
51237;BME280;37312;47.550;18.818;2022-08-07T07:18:42;99448.81;;;22.30;71.54
51237;BME280;37312;47.550;18.818;2022-08-07T07:21:19;99443.94;;;22.54;71.05
51237;BME280;37312;47.550;18.818;2022-08-07T07:23:47;99445.66;;;22.92;68.25
51237;BME280;37312;47.550;18.818;2022-08-07T07:26:16;99440.47;;;23.40;68.40
51237;BME280;37312;47.550;18.818;2022-08-07T07:28:47;99441.44;;;23.81;64.70
51237;BME280;37312;47.550;18.818;2022-08-07T07:31:23;99436.44;;;24.05;63.60
51237;BME280;37312;47.550;18.818;2022-08-07T07:33:55;99441.69;;;24.55;62.32
51237;BME280;37312;47.550;18.818;2022-08-07T07:36:24;99439.81;;;24.73;60.36
51237;BME280;37312;47.550;18.818;2022-08-07T07:38:52;99440.22;;;25.07;59.39
51237;BME280;37312;47.550;18.818;2022-08-07T07:41:20;99442.22;;;25.67;57.79
51237;BME280;37312;47.550;18.818;2022-08-07T07:43:49;99442.13;;;26.28;55.00
51237;BME280;37312;47.550;18.818;2022-08-07T07:46:17;99439.00;;;26.30;53.80
51237;BME280;37312;47.550;18.818;2022-08-07T07:48:45;99438.38;;;26.24;51.80
51237;BME280;37312;47.550;18.818;2022-08-07T07:51:14;99446.31;;;26.73;51.62
51237;BME280;37312;47.550;18.818;2022-08-07T07:53:43;99439.72;;;27.16;50.27
51237;BME280;37312;47.550;18.818;2022-08-07T07:56:12;99436.78;;;27.42;49.64
51237;BME280;37312;47.550;18.818;2022-08-07T07:58:39;99437.31;;;27.35;48.38
51237;BME280;37312;47.550;18.818;2022-08-07T08:01:07;99443.38;;;27.29;48.62
51237;BME280;37312;47.550;18.818;2022-08-07T08:03:36;99441.97;;;26.93;49.15
51237;BME280;37312;47.550;18.818;2022-08-07T08:06:04;99441.84;;;26.89;50.06
51237;BME280;37312;47.550;18.818;2022-08-07T08:08:32;99440.38;;;26.15;50.58
51237;BME280;37312;47.550;18.818;2022-08-07T08:11:00;99445.91;;;25.97;51.02
51237;BME280;37312;47.550;18.818;2022-08-07T08:13:28;99442.69;;;25.95;51.77
51237;BME280;37312;47.550;18.818;2022-08-07T08:15:56;99450.97;;;25.69;52.45
51237;BME280;37312;47.550;18.818;2022-08-07T08:18:23;99449.03;;;25.61;54.56
51237;BME280;37312;47.550;18.818;2022-08-07T08:20:51;99446.91;;;25.32;53.40
51237;BME280;37312;47.550;18.818;2022-08-07T08:23:18;99454.72;;;25.38;56.15
51237;BME280;37312;47.550;18.818;2022-08-07T08:26:05;99452.59;;;25.35;56.01
51237;BME280;37312;47.550;18.818;2022-08-07T08:28:51;99455.38;;;25.44;56.06
51237;BME280;37312;47.550;18.818;2022-08-07T08:31:25;99451.78;;;25.44;55.17
51237;BME280;37312;47.550;18.818;2022-08-07T08:33:54;99444.66;;;25.43;55.05
51237;BME280;37312;47.550;18.818;2022-08-07T08:36:24;99451.16;;;25.38;55.70
51237;BME280;37312;47.550;18.818;2022-08-07T08:38:52;99447.09;;;25.35;54.36
51237;BME280;37312;47.550;18.818;2022-08-07T08:41:26;99452.13;;;25.42;54.51
51237;BME280;37312;47.550;18.818;2022-08-07T08:46:49;99445.50;;;27.02;50.35
51237;BME280;37312;47.550;18.818;2022-08-07T08:49:25;99455.09;;;28.34;46.17
51237;BME280;37312;47.550;18.818;2022-08-07T08:52:00;99458.94;;;29.16;43.07
51237;BME280;37312;47.550;18.818;2022-08-07T08:54:59;99453.38;;;29.03;43.07
51237;BME280;37312;47.550;18.818;2022-08-07T08:57:54;99461.91;;;30.04;41.38
51237;BME280;37312;47.550;18.818;2022-08-07T09:00:25;99455.44;;;32.05;35.87
51237;BME280;37312;47.550;18.818;2022-08-07T09:05:36;99457.47;;;34.76;31.61
51237;BME280;37312;47.550;18.818;2022-08-07T09:14:04;99448.97;;;36.37;27.83
51237;BME280;37312;47.550;18.818;2022-08-07T09:16:59;99441.91;;;35.52;28.61
51237;BME280;37312;47.550;18.818;2022-08-07T09:19:56;99442.16;;;36.35;27.95
51237;BME280;37312;47.550;18.818;2022-08-07T09:22:38;99443.75;;;36.39;28.11
51237;BME280;37312;47.550;18.818;2022-08-07T09:25:23;99444.53;;;35.16;28.68
51237;BME280;37312;47.550;18.818;2022-08-07T09:28:03;99430.84;;;34.48;29.70
51237;BME280;37312;47.550;18.818;2022-08-07T09:30:54;99433.06;;;35.43;28.97
51237;BME280;37312;47.550;18.818;2022-08-07T09:33:40;99430.81;;;35.77;29.42
51237;BME280;37312;47.550;18.818;2022-08-07T09:36:19;99435.00;;;35.28;28.79
51237;BME280;37312;47.550;18.818;2022-08-07T09:41:54;99434.47;;;32.57;34.28
51237;BME280;37312;47.550;18.818;2022-08-07T09:44:43;99428.50;;;33.12;34.39
51237;BME280;37312;47.550;18.818;2022-08-07T09:50:24;99416.06;;;32.29;35.52
51237;BME280;37312;47.550;18.818;2022-08-07T09:52:59;99410.62;;;31.94;36.30
51237;BME280;37312;47.550;18.818;2022-08-07T10:03:47;99407.03;;;30.96;38.11
51237;BME280;37312;47.550;18.818;2022-08-07T10:06:39;99406.97;;;32.09;35.83
51237;BME280;37312;47.550;18.818;2022-08-07T10:18:03;99391.37;;;32.31;35.45
51237;BME280;37312;47.550;18.818;2022-08-07T10:35:09;99376.66;;;32.08;34.29
51237;BME280;37312;47.550;18.818;2022-08-07T10:37:59;99367.16;;;32.58;34.92
51237;BME280;37312;47.550;18.818;2022-08-07T10:40:36;99359.41;;;32.48;33.65
51237;BME280;37312;47.550;18.818;2022-08-07T10:43:20;99364.62;;;32.76;33.94
51237;BME280;37312;47.550;18.818;2022-08-07T10:45:54;99355.59;;;32.33;34.04
51237;BME280;37312;47.550;18.818;2022-08-07T10:51:04;99355.81;;;31.55;35.76
51237;BME280;37312;47.550;18.818;2022-08-07T10:53:44;99352.63;;;31.99;35.40
51237;BME280;37312;47.550;18.818;2022-08-07T10:59:14;99349.59;;;31.85;34.54
51237;BME280;37312;47.550;18.818;2022-08-07T11:09:38;99339.25;;;31.43;36.95
51237;BME280;37312;47.550;18.818;2022-08-07T11:12:16;99330.97;;;31.89;35.18
51237;BME280;37312;47.550;18.818;2022-08-07T11:14:51;99333.75;;;32.12;35.14
51237;BME280;37312;47.550;18.818;2022-08-07T11:17:29;99331.53;;;31.75;35.76
51237;BME280;37312;47.550;18.818;2022-08-07T11:20:12;99328.91;;;31.63;37.19
51237;BME280;37312;47.550;18.818;2022-08-07T11:25:35;99329.09;;;31.74;34.69
51237;BME280;37312;47.550;18.818;2022-08-07T11:28:05;99331.97;;;32.01;34.99
51237;BME280;37312;47.550;18.818;2022-08-07T11:37:16;99324.09;;;31.83;35.31
51237;BME280;37312;47.550;18.818;2022-08-07T11:39:57;99321.63;;;31.78;35.22
51237;BME280;37312;47.550;18.818;2022-08-07T11:44:55;99306.53;;;31.17;35.84
51237;BME280;37312;47.550;18.818;2022-08-07T11:50:26;99312.59;;;31.42;35.19
51237;BME280;37312;47.550;18.818;2022-08-07T11:53:02;99312.69;;;31.26;34.88
51237;BME280;37312;47.550;18.818;2022-08-07T12:09:15;99297.59;;;31.70;35.14
51237;BME280;37312;47.550;18.818;2022-08-07T12:11:58;99295.75;;;31.77;35.30
51237;BME280;37312;47.550;18.818;2022-08-07T12:14:29;99287.41;;;31.77;34.38
51237;BME280;37312;47.550;18.818;2022-08-07T12:17:00;99294.09;;;31.73;34.91
51237;BME280;37312;47.550;18.818;2022-08-07T12:19:51;99288.62;;;31.57;34.81
51237;BME280;37312;47.550;18.818;2022-08-07T12:22:40;99278.28;;;31.15;35.10
51237;BME280;37312;47.550;18.818;2022-08-07T12:25:31;99288.12;;;31.32;36.35
51237;BME280;37312;47.550;18.818;2022-08-07T12:28:30;99286.84;;;31.68;37.05
51237;BME280;37312;47.550;18.818;2022-08-07T12:31:05;99285.34;;;31.74;33.93
51237;BME280;37312;47.550;18.818;2022-08-07T12:33:34;99283.53;;;32.09;35.06
51237;BME280;37312;47.550;18.818;2022-08-07T12:36:02;99277.50;;;32.30;35.09
51237;BME280;37312;47.550;18.818;2022-08-07T12:38:29;99282.31;;;32.59;35.03
51237;BME280;37312;47.550;18.818;2022-08-07T12:41:00;99274.19;;;32.20;34.37
51237;BME280;37312;47.550;18.818;2022-08-07T12:43:30;99278.75;;;32.59;34.95
51237;BME280;37312;47.550;18.818;2022-08-07T12:46:48;99276.22;;;32.80;33.71
51237;BME280;37312;47.550;18.818;2022-08-07T12:49:34;99269.25;;;32.64;33.02
51237;BME280;37312;47.550;18.818;2022-08-07T12:57:13;99269.50;;;31.78;34.35
51237;BME280;37312;47.550;18.818;2022-08-07T12:59:43;99260.16;;;32.13;34.61
51237;BME280;37312;47.550;18.818;2022-08-07T13:10:21;99252.09;;;31.85;34.62
51237;BME280;37312;47.550;18.818;2022-08-07T13:12:58;99248.13;;;32.09;34.39
51237;BME280;37312;47.550;18.818;2022-08-07T13:15:49;99252.50;;;32.07;34.03
51237;BME280;37312;47.550;18.818;2022-08-07T13:21:12;99248.34;;;31.74;34.17
51237;BME280;37312;47.550;18.818;2022-08-07T13:23:53;99243.53;;;31.71;35.11
51237;BME280;37312;47.550;18.818;2022-08-07T13:29:09;99253.00;;;31.93;34.97
51237;BME280;37312;47.550;18.818;2022-08-07T13:31:42;99248.03;;;31.79;34.62
51237;BME280;37312;47.550;18.818;2022-08-07T13:36:53;99235.78;;;31.61;35.15
51237;BME280;37312;47.550;18.818;2022-08-07T13:39:33;99245.44;;;31.44;35.31
51237;BME280;37312;47.550;18.818;2022-08-07T13:42:00;99235.19;;;31.48;35.14
51237;BME280;37312;47.550;18.818;2022-08-07T13:44:31;99228.78;;;31.47;35.21
51237;BME280;37312;47.550;18.818;2022-08-07T13:46:58;99228.97;;;31.35;35.22
51237;BME280;37312;47.550;18.818;2022-08-07T13:49:32;99221.28;;;31.48;35.09
51237;BME280;37312;47.550;18.818;2022-08-07T13:52:07;99224.72;;;31.41;34.99
51237;BME280;37312;47.550;18.818;2022-08-07T13:54:34;99221.94;;;31.41;35.00
51237;BME280;37312;47.550;18.818;2022-08-07T13:57:03;99218.31;;;31.41;35.61
51237;BME280;37312;47.550;18.818;2022-08-07T13:59:39;99209.03;;;31.33;35.91
51237;BME280;37312;47.550;18.818;2022-08-07T14:02:10;99206.41;;;31.21;35.02
51237;BME280;37312;47.550;18.818;2022-08-07T14:07:10;99199.16;;;31.58;36.23
51237;BME280;37312;47.550;18.818;2022-08-07T14:09:38;99191.94;;;31.54;35.03
51237;BME280;37312;47.550;18.818;2022-08-07T14:12:08;99199.28;;;31.66;35.25
51237;BME280;37312;47.550;18.818;2022-08-07T14:14:52;99198.03;;;31.63;35.03
51237;BME280;37312;47.550;18.818;2022-08-07T14:17:22;99195.91;;;31.53;35.82
51237;BME280;37312;47.550;18.818;2022-08-07T14:19:51;99202.16;;;31.46;35.54
51237;BME280;37312;47.550;18.818;2022-08-07T14:22:26;99192.87;;;31.62;35.05
51237;BME280;37312;47.550;18.818;2022-08-07T14:24:58;99194.41;;;31.86;34.84
51237;BME280;37312;47.550;18.818;2022-08-07T14:27:34;99190.00;;;32.08;34.72
51237;BME280;37312;47.550;18.818;2022-08-07T14:30:06;99195.25;;;32.13;34.09
51237;BME280;37312;47.550;18.818;2022-08-07T14:32:58;99191.59;;;32.09;34.24
51237;BME280;37312;47.550;18.818;2022-08-07T14:35:35;99190.75;;;32.05;33.84
51237;BME280;37312;47.550;18.818;2022-08-07T14:38:01;99186.53;;;31.65;34.35
51237;BME280;37312;47.550;18.818;2022-08-07T14:40:29;99184.78;;;31.33;35.57
51237;BME280;37312;47.550;18.818;2022-08-07T14:42:59;99191.34;;;31.22;35.13
51237;BME280;37312;47.550;18.818;2022-08-07T14:45:41;99177.47;;;31.45;35.59
51237;BME280;37312;47.550;18.818;2022-08-07T14:48:10;99180.19;;;31.64;34.71
51237;BME280;37312;47.550;18.818;2022-08-07T14:50:46;99184.16;;;31.21;35.19
51237;BME280;37312;47.550;18.818;2022-08-07T14:53:13;99171.00;;;31.41;36.23
51237;BME280;37312;47.550;18.818;2022-08-07T14:55:41;99175.91;;;31.47;35.39
51237;BME280;37312;47.550;18.818;2022-08-07T14:58:10;99174.09;;;31.12;35.05
51237;BME280;37312;47.550;18.818;2022-08-07T15:00:41;99168.78;;;30.84;36.26
51237;BME280;37312;47.550;18.818;2022-08-07T15:03:08;99161.97;;;30.82;38.30
51237;BME280;37312;47.550;18.818;2022-08-07T15:05:35;99167.22;;;31.06;36.76
51237;BME280;37312;47.550;18.818;2022-08-07T15:08:05;99162.22;;;31.15;35.98
51237;BME280;37312;47.550;18.818;2022-08-07T15:10:34;99170.69;;;31.00;36.15
51237;BME280;37312;47.550;18.818;2022-08-07T15:13:09;99165.63;;;31.05;35.69